Time;durP1;ratioP1;P1;durP2;ratioP2;P2;SDS_P1;SDS_P2;PMS_P1;PMS_P2;Temp;Humidity;BMP_temperature;BMP_pressure;BME280_temperature;BME280_humidity;BME280_pressure;Samples;Min_cycle;Max_cycle;Signal;HPM_P1;HPM_P2
2024/01/16 00:01:57;;;;;;;1.25;1.25;;;;;;;-1.35;73.34;97973.16;6098109;23;20014;-90
2024/01/16 00:04:22;;;;;;;1.20;1.20;;;;;;;-1.35;73.38;97969.66;6077456;23;20443;-93
2024/01/16 00:06:49;;;;;;;1.03;1.03;;;;;;;-1.32;72.65;97970.75;6101836;23;20578;-92
2024/01/16 00:09:14;;;;;;;1.20;1.20;;;;;;;-1.54;73.35;97978.03;6100694;23;20006;-93
2024/01/16 00:11:41;;;;;;;1.20;1.20;;;;;;;-1.68;74.15;97977.16;6102978;23;20014;-91
2024/01/16 00:14:06;;;;;;;1.20;1.20;;;;;;;-1.92;75.34;97981.72;6101939;23;20007;-92
2024/01/16 00:16:49;;;;;;;1.20;1.20;;;;;;;-2.13;76.20;97988.16;6077043;23;20255;-92
2024/01/16 00:19:14;;;;;;;1.20;1.20;;;;;;;-2.03;76.23;97980.13;6076690;23;20029;-92
2024/01/16 00:21:47;;;;;;;1.20;1.20;;;;;;;-2.11;76.74;97978.72;6125712;23;20018;-92
2024/01/16 00:24:14;;;;;;;1.20;1.20;;;;;;;-2.12;76.86;97984.75;6079041;23;20029;-91
2024/01/16 00:26:39;;;;;;;1.20;1.20;;;;;;;-2.07;77.35;97981.63;6082304;23;20011;-92
2024/01/16 00:29:05;;;;;;;1.20;1.20;;;;;;;-2.13;77.39;97982.94;6104565;23;20018;-91
2024/01/16 00:31:31;;;;;;;1.13;1.13;;;;;;;-2.14;77.75;97983.75;6076164;23;20104;-92
2024/01/16 00:33:57;;;;;;;1.20;1.20;;;;;;;-2.16;78.24;97977.50;6094951;23;20003;-92
2024/01/16 00:36:23;;;;;;;1.20;1.20;;;;;;;-1.82;76.10;97976.31;6071490;23;20014;-91
2024/01/16 00:38:49;;;;;;;1.17;1.17;;;;;;;-1.92;76.78;97981.72;6095178;23;20021;-90
2024/01/16 00:41:16;;;;;;;1.20;1.20;;;;;;;-2.09;78.22;97979.72;6094267;23;20003;-90
2024/01/16 00:43:43;;;;;;;1.20;1.20;;;;;;;-2.18;78.94;97980.03;6074764;23;20025;-91
2024/01/16 00:46:10;;;;;;;1.10;1.10;;;;;;;-2.19;79.88;97985.16;6098958;23;20023;-91
2024/01/16 00:48:35;;;;;;;1.10;1.10;;;;;;;-2.24;80.08;97987.47;6074035;23;20547;-92
2024/01/16 00:51:02;;;;;;;1.20;1.20;;;;;;;-2.20;78.94;97988.59;6098444;23;20017;-91
2024/01/16 00:53:28;;;;;;;1.13;1.13;;;;;;;-2.03;76.89;97989.69;6075926;23;20014;-92
2024/01/16 00:55:54;;;;;;;1.10;1.10;;;;;;;-1.99;76.21;97992.59;6089381;23;20545;-91
2024/01/16 00:58:24;;;;;;;1.20;1.20;;;;;;;-2.10;78.95;97986.66;6089859;23;20044;-91
2024/01/16 01:00:50;;;;;;;1.10;1.10;;;;;;;-2.02;77.71;97979.31;6113783;23;20041;-91
2024/01/16 01:03:18;;;;;;;1.10;1.10;;;;;;;-2.10;78.48;97986.66;6109173;23;20014;-91
2024/01/16 01:05:44;;;;;;;1.20;1.20;;;;;;;-2.14;79.01;97986.38;6100353;23;20019;-91
2024/01/16 01:08:09;;;;;;;1.20;1.20;;;;;;;-2.13;79.67;97994.28;6124629;23;20023;-91
2024/01/16 01:10:35;;;;;;;1.15;1.15;;;;;;;-2.14;79.67;97994.22;6075322;23;20010;-91
2024/01/16 01:13:00;;;;;;;1.17;1.17;;;;;;;-2.12;79.53;97992.59;6098795;23;20018;-91
2024/01/16 01:15:26;;;;;;;1.20;1.20;;;;;;;-1.91;76.85;97991.41;6099733;23;20011;-91
2024/01/16 01:17:52;;;;;;;1.20;1.20;;;;;;;-1.98;77.61;97996.09;6098746;23;20018;-91
2024/01/16 01:20:19;;;;;;;1.20;1.20;;;;;;;-1.99;78.46;97996.91;6098077;23;20402;-90
2024/01/16 01:22:45;;;;;;;1.10;1.10;;;;;;;-2.10;76.79;97999.75;6074703;23;20048;-91
2024/01/16 01:25:13;;;;;;;1.20;1.20;;;;;;;-2.17;79.00;97997.50;6074625;23;20014;-91
2024/01/16 01:27:40;;;;;;;1.10;1.10;;;;;;;-2.13;78.65;98004.75;6072565;23;20525;-92
2024/01/16 01:30:12;;;;;;;1.10;1.10;;;;;;;-2.24;79.15;98013.59;6095960;23;20077;-91
2024/01/16 01:32:39;;;;;;;1.20;1.20;;;;;;;-2.29;79.74;98015.00;6097432;23;20010;-91
2024/01/16 01:35:05;;;;;;;1.07;1.07;;;;;;;-2.26;79.42;98015.19;6098631;23;20018;-91
2024/01/16 01:37:31;;;;;;;1.20;1.20;;;;;;;-2.23;79.13;98023.25;6098586;23;20061;-92
2024/01/16 01:39:57;;;;;;;1.20;1.20;;;;;;;-2.28;79.75;98013.28;6073751;23;20022;-91
2024/01/16 01:42:23;;;;;;;1.20;1.20;;;;;;;-2.39;80.29;98008.25;6097951;23;20132;-92
2024/01/16 01:44:48;;;;;;;1.10;1.10;;;;;;;-2.29;80.50;98016.72;6073812;23;20014;-91
2024/01/16 01:47:22;;;;;;;1.10;1.10;;;;;;;-2.34;81.39;98025.13;6075212;23;20435;-92
2024/01/16 01:49:48;;;;;;;1.20;1.20;;;;;;;-2.41;81.89;98017.66;6074104;23;20335;-92
2024/01/16 01:52:14;;;;;;;1.20;1.20;;;;;;;-2.35;80.71;98028.56;6097659;23;20018;-92
2024/01/16 01:54:40;;;;;;;1.20;1.20;;;;;;;-2.39;81.99;98026.53;6074942;23;20049;-92
2024/01/16 01:57:08;;;;;;;1.20;1.20;;;;;;;-2.40;81.34;98035.16;6123492;23;20018;-90
2024/01/16 01:59:33;;;;;;;1.20;1.20;;;;;;;-2.47;81.45;98032.03;6074447;23;20054;-92
2024/01/16 02:02:01;;;;;;;1.20;1.20;;;;;;;-2.45;81.32;98038.25;6075556;23;20014;-91
2024/01/16 02:04:32;;;;;;;1.20;1.20;;;;;;;-2.40;81.14;98039.47;6101356;23;20410;-91
2024/01/16 02:07:01;;;;;;;1.20;1.20;;;;;;;-2.47;81.21;98032.94;6099331;23;20081;-91
2024/01/16 02:09:27;;;;;;;1.17;1.17;;;;;;;-2.43;81.06;98041.91;6076448;23;20010;-91
2024/01/16 02:11:52;;;;;;;1.20;1.20;;;;;;;-2.47;81.35;98035.56;6100315;23;20034;-90
2024/01/16 02:14:18;;;;;;;1.10;1.10;;;;;;;-2.48;80.74;98046.81;6099769;23;20010;-90
2024/01/16 02:16:46;;;;;;;1.20;1.20;;;;;;;-2.45;80.93;98040.88;6076209;23;20021;-92
2024/01/16 02:19:12;;;;;;;1.20;1.20;;;;;;;-2.50;81.45;98040.56;6102369;23;20036;-91
2024/01/16 02:21:51;;;;;;;1.17;1.17;;;;;;;-2.58;81.10;98039.16;6079327;23;20097;-91
2024/01/16 02:24:18;;;;;;;1.20;1.20;;;;;;;-2.51;81.05;98046.59;6104354;23;20025;-91
2024/01/16 02:26:44;;;;;;;1.10;1.10;;;;;;;-2.47;81.20;98047.69;6110215;23;19998;-91
2024/01/16 02:29:10;;;;;;;1.20;1.20;;;;;;;-2.41;79.21;98045.50;6113804;23;20033;-92
2024/01/16 02:31:36;;;;;;;1.20;1.20;;;;;;;-2.43;79.79;98045.41;6113820;23;20015;-90
2024/01/16 02:34:03;;;;;;;1.20;1.20;;;;;;;-2.31;79.48;98037.47;6078381;23;20037;-91
2024/01/16 02:36:31;;;;;;;1.20;1.20;;;;;;;-2.34;80.45;98043.41;6085510;23;20015;-91
2024/01/16 02:39:06;;;;;;;1.10;1.10;;;;;;;-2.27;79.61;98044.72;6104477;23;20025;-90
2024/01/16 02:41:31;;;;;;;1.20;1.20;;;;;;;-2.38;81.17;98050.94;6082980;23;20021;-91
2024/01/16 02:43:57;;;;;;;1.17;1.17;;;;;;;-2.38;81.37;98046.63;6099078;23;20010;-92
2024/01/16 02:46:22;;;;;;;1.20;1.20;;;;;;;-2.45;81.73;98041.75;6098681;23;20015;-91
2024/01/16 02:48:48;;;;;;;1.20;1.20;;;;;;;-2.49;82.00;98042.38;6098537;23;20014;-92
2024/01/16 02:51:15;;;;;;;1.20;1.20;;;;;;;-2.43;81.98;98045.41;6075596;23;20021;-91
2024/01/16 02:53:41;;;;;;;1.20;1.20;;;;;;;-2.46;81.20;98042.56;6073877;23;20088;-92
2024/01/16 02:56:10;;;;;;;1.13;1.13;;;;;;;-2.35;78.89;98044.22;6097887;23;20089;-91
2024/01/16 02:58:37;;;;;;;1.10;1.10;;;;;;;-2.60;80.06;98045.94;6098300;23;20426;-92
2024/01/16 03:01:02;;;;;;;1.20;1.20;;;;;;;-2.78;81.93;98042.06;6075075;23;20585;-92
2024/01/16 03:03:28;;;;;;;1.10;1.10;;;;;;;-2.85;82.33;98043.34;6101571;23;20018;-92
2024/01/16 03:05:55;;;;;;;1.10;1.10;;;;;;;-3.05;82.91;98047.19;6075736;23;20014;-93
2024/01/16 03:08:22;;;;;;;1.20;1.20;;;;;;;-3.08;83.35;98046.97;6098511;23;20523;-92
2024/01/16 03:10:50;;;;;;;1.20;1.20;;;;;;;-3.12;83.54;98043.22;6099516;23;20085;-92
2024/01/16 03:13:20;;;;;;;1.20;1.20;;;;;;;-3.08;83.76;98048.66;6098482;23;20006;-92
2024/01/16 03:15:45;;;;;;;1.20;1.20;;;;;;;-3.13;83.79;98045.75;6074202;23;20028;-92
2024/01/16 03:18:13;;;;;;;1.13;1.13;;;;;;;-3.15;83.90;98048.25;6098038;23;20037;-92
2024/01/16 03:20:38;;;;;;;1.20;1.20;;;;;;;-3.14;84.01;98044.84;6096515;23;20320;-91
2024/01/16 03:23:10;;;;;;;1.20;1.20;;;;;;;-3.19;84.41;98045.31;6097354;23;20022;-94
2024/01/16 03:25:38;;;;;;;1.20;1.20;;;;;;;-3.11;84.14;98046.78;6073839;23;20002;-91
2024/01/16 03:28:07;;;;;;;1.20;1.20;;;;;;;-3.11;83.58;98044.16;6100492;23;20427;-94
2024/01/16 03:30:34;;;;;;;1.20;1.20;;;;;;;-3.31;84.17;98047.03;6102203;23;20042;-92
2024/01/16 03:33:03;;;;;;;1.10;1.10;;;;;;;-3.41;84.05;98051.59;6104047;23;20143;-92
2024/01/16 03:35:30;;;;;;;1.10;1.10;;;;;;;-3.55;84.93;98049.69;6101263;23;20018;-92
2024/01/16 03:37:55;;;;;;;1.20;1.20;;;;;;;-3.71;85.44;98046.78;6078014;23;20014;-94
2024/01/16 03:40:22;;;;;;;1.20;1.20;;;;;;;-3.69;85.81;98053.00;6102072;23;20015;-94
2024/01/16 03:42:48;;;;;;;1.30;1.30;;;;;;;-3.69;85.63;98053.94;6103163;23;20010;-94
2024/01/16 03:45:16;;;;;;;1.30;1.30;;;;;;;-3.81;86.18;98042.59;6096338;23;20010;-92
2024/01/16 03:47:44;;;;;;;1.20;1.20;;;;;;;-3.76;86.17;98048.16;6070447;23;20014;-91
2024/01/16 03:50:10;;;;;;;1.20;1.20;;;;;;;-3.74;85.86;98043.94;6069755;23;20010;-91
2024/01/16 03:52:38;;;;;;;1.23;1.23;;;;;;;-3.77;85.97;98041.13;6095206;23;20025;-91
2024/01/16 03:55:03;;;;;;;1.20;1.20;;;;;;;-3.64;85.92;98043.81;6095419;23;20436;-92
2024/01/16 03:57:29;;;;;;;1.30;1.30;;;;;;;-3.55;85.56;98039.25;6098074;23;20130;-91
2024/01/16 03:59:56;;;;;;;1.30;1.30;;;;;;;-3.49;85.29;98047.56;6074129;23;20006;-92
2024/01/16 04:02:21;;;;;;;1.20;1.20;;;;;;;-3.50;84.89;98044.81;6047817;23;20033;-91
2024/01/16 04:04:48;;;;;;;1.30;1.30;;;;;;;-3.69;84.26;98040.91;6097285;23;20019;-91
2024/01/16 04:07:15;;;;;;;1.30;1.30;;;;;;;-3.64;83.58;98039.53;6097346;23;20018;-92
2024/01/16 04:09:42;;;;;;;1.27;1.27;;;;;;;-3.82;83.78;98042.50;6073959;23;20014;-93
2024/01/16 04:12:08;;;;;;;1.20;1.20;;;;;;;-3.80;84.50;98047.00;6077088;23;20097;-90
2024/01/16 04:14:36;;;;;;;;;;;;;;;-3.79;85.12;98055.72;6110512;23;20027;-93
2024/01/16 04:17:24;;;;;;;1.30;1.30;;;;;;;-3.84;84.82;98046.69;6087782;23;19933;-91
2024/01/16 04:19:51;;;;;;;1.23;1.23;;;;;;;-3.89;85.07;98049.84;6110681;23;20273;-93
2024/01/16 04:22:17;;;;;;;1.20;1.20;;;;;;;-3.88;85.45;98043.88;6090495;23;20019;-91
2024/01/16 04:24:44;;;;;;;1.10;1.10;;;;;;;-3.84;85.51;98038.84;6115940;23;20157;-92
2024/01/16 04:27:11;;;;;;;1.27;1.27;;;;;;;-4.08;85.71;98053.59;6114383;23;20014;-92
2024/01/16 04:29:37;;;;;;;;;;;;;;;-4.32;86.11;98045.75;6111577;23;20018;-91
2024/01/16 04:32:03;;;;;;;1.30;1.30;;;;;;;-4.40;86.64;98047.81;6086239;23;19944;-91
2024/01/16 04:34:29;;;;;;;1.30;1.30;;;;;;;-4.46;86.75;98036.91;6107837;23;20041;-93
2024/01/16 04:36:55;;;;;;;1.30;1.30;;;;;;;-4.61;87.23;98040.97;6081299;23;20014;-94
2024/01/16 04:39:22;;;;;;;1.20;1.20;;;;;;;-4.90;87.64;98049.13;6101267;23;20718;-91
2024/01/16 04:41:53;;;;;;;1.30;1.30;;;;;;;-5.08;88.80;98051.22;6099012;23;20025;-91
2024/01/16 04:44:18;;;;;;;1.30;1.30;;;;;;;-5.09;89.57;98053.69;6098763;23;20018;-91
2024/01/16 04:46:44;;;;;;;1.30;1.30;;;;;;;-5.28;89.82;98056.53;6096901;23;20089;-91
2024/01/16 04:49:14;;;;;;;1.20;1.20;;;;;;;-5.33;89.60;98058.78;6099370;23;20037;-93
2024/01/16 04:51:39;;;;;;;1.20;1.20;;;;;;;-5.32;89.54;98058.00;6078855;23;20002;-93
2024/01/16 04:54:05;;;;;;;1.20;1.20;;;;;;;-5.55;89.19;98061.38;6078564;23;20344;-94
2024/01/16 04:56:30;;;;;;;1.30;1.30;;;;;;;-5.78;89.16;98071.63;6101396;23;20010;-93
2024/01/16 04:58:58;;;;;;;1.30;1.30;;;;;;;-5.69;89.18;98069.78;6076784;23;20435;-94
2024/01/16 05:01:23;;;;;;;1.30;1.30;;;;;;;-5.83;88.66;98073.84;6078454;23;20050;-94
2024/01/16 05:03:49;;;;;;;1.30;1.30;;;;;;;-5.88;88.55;98072.56;6101506;23;20022;-93
2024/01/16 05:06:21;;;;;;;1.30;1.30;;;;;;;-6.05;88.19;98078.09;6075764;23;20086;-95
2024/01/16 05:08:53;;;;;;;1.20;1.20;;;;;;;-6.37;88.34;98081.56;6103812;23;20022;-92
2024/01/16 05:11:18;;;;;;;1.23;1.23;;;;;;;-6.45;88.94;98080.00;6076876;23;20104;-93
2024/01/16 05:13:44;;;;;;;1.30;1.30;;;;;;;-6.57;89.22;98061.72;6101311;23;20038;-92
2024/01/16 05:16:14;;;;;;;1.20;1.20;;;;;;;-6.75;89.13;98063.69;6101056;23;20507;-93
2024/01/16 05:18:44;;;;;;;1.30;1.30;;;;;;;-6.69;89.58;98060.69;6100903;23;20141;-95
2024/01/16 05:21:15;;;;;;;1.30;1.30;;;;;;;-6.50;89.17;98053.66;6101328;23;20018;-94
2024/01/16 05:23:44;;;;;;;1.23;1.23;;;;;;;-6.34;88.87;98044.56;6105469;23;20067;-95
2024/01/16 05:26:12;;;;;;;1.20;1.20;;;;;;;-6.76;88.69;98046.28;6083505;23;20018;-94
2024/01/16 05:28:41;;;;;;;1.30;1.30;;;;;;;-6.54;88.58;98042.91;6107025;23;20082;-94
2024/01/16 05:31:07;;;;;;;1.25;1.25;;;;;;;-6.58;88.45;98046.03;6100712;23;20057;-94
2024/01/16 05:33:35;;;;;;;1.30;1.30;;;;;;;-6.74;88.43;98042.16;6103963;23;20045;-93
2024/01/16 05:36:02;;;;;;;1.20;1.20;;;;;;;-6.88;88.85;98044.38;6078523;23;20002;-94
2024/01/16 05:38:29;;;;;;;1.20;1.20;;;;;;;-6.75;88.92;98039.44;6080240;23;20018;-95
2024/01/16 05:40:55;;;;;;;1.30;1.30;;;;;;;-7.02;88.78;98041.50;6100952;23;20037;-93
2024/01/16 05:43:33;;;;;;;1.30;1.30;;;;;;;-7.04;89.35;98036.94;6132199;23;20038;-94
2024/01/16 05:46:00;;;;;;;1.30;1.30;;;;;;;-7.06;89.75;98043.72;6110327;23;20017;-93
2024/01/16 05:48:28;;;;;;;1.30;1.30;;;;;;;-6.87;89.40;98035.81;6111915;23;19998;-93
2024/01/16 05:50:54;;;;;;;;;;;;;;;-6.98;89.07;98027.13;6113718;23;20331;-95
2024/01/16 05:53:21;;;;;;;1.30;1.30;;;;;;;-6.96;88.43;98025.56;6112728;23;19901;-93
2024/01/16 05:55:53;;;;;;;1.23;1.23;;;;;;;-7.01;88.43;98030.34;6114671;23;20034;-92
2024/01/16 05:58:21;;;;;;;1.20;1.20;;;;;;;-7.12;88.71;98023.38;6112633;23;20022;-94
2024/01/16 06:01:13;;;;;;;1.40;1.40;;;;;;;-7.31;89.02;98031.25;6111870;23;20069;-93
2024/01/16 06:03:53;;;;;;;1.20;1.20;;;;;;;-6.81;88.84;98029.44;6106819;23;20351;-94
2024/01/16 06:06:30;;;;;;;1.20;1.20;;;;;;;-6.73;88.16;98031.00;6096528;23;20023;-94
2024/01/16 06:08:57;;;;;;;1.30;1.30;;;;;;;-6.95;87.86;98022.19;6101548;23;20062;-95
2024/01/16 06:11:51;;;;;;;1.20;1.20;;;;;;;-7.12;88.37;98023.38;6102714;23;20409;-94
2024/01/16 06:14:21;;;;;;;1.20;1.20;;;;;;;-6.92;88.20;98017.25;6106118;23;20024;-95
2024/01/16 06:16:51;;;;;;;1.10;1.10;;;;;;;-7.04;88.71;98014.56;6112542;23;20058;-94
2024/01/16 06:22:39;;;;;;;1.30;1.30;;;;;;;-6.63;87.33;98017.09;6139096;23;20012;-95
2024/01/16 06:25:07;;;;;;;1.20;1.20;;;;;;;-6.70;87.44;98009.59;6176307;23;20009;-94
2024/01/16 06:27:40;;;;;;;1.25;1.25;;;;;;;-6.69;87.81;98008.81;6177675;23;20052;-94
2024/01/16 06:30:27;;;;;;;1.20;1.20;;;;;;;-6.77;87.62;98005.56;6172329;23;20025;-94
2024/01/16 06:33:13;;;;;;;1.20;1.20;;;;;;;-6.70;88.14;98014.78;6139036;23;20009;-95
2024/01/16 09:02:48;;;;;;;1.20;1.20;;;;;;;-1.62;74.23;98010.69;6114136;23;20013;-93
2024/01/16 09:05:15;;;;;;;1.20;1.20;;;;;;;-1.67;73.71;98025.16;6121240;23;20030;-92
2024/01/16 09:59:04;;;;;;;1.13;1.13;;;;;;;1.39;64.35;98025.78;6098725;23;20826;-93
2024/01/16 10:01:37;;;;;;;1.10;1.10;;;;;;;1.38;63.44;98028.31;6142374;23;20021;-95
2024/01/16 10:04:07;;;;;;;1.20;1.20;;;;;;;1.53;63.36;98035.31;6143321;23;20048;-94
2024/01/16 10:06:34;;;;;;;1.17;1.17;;;;;;;1.62;62.52;98026.09;6139467;23;20010;-94
2024/01/16 10:09:01;;;;;;;1.10;1.10;;;;;;;1.85;61.86;98022.91;6117670;23;20014;-94
2024/01/16 10:11:29;;;;;;;1.10;1.10;;;;;;;2.15;60.92;98023.56;6140634;23;20576;-93
2024/01/16 10:14:04;;;;;;;;;;;;;;;2.33;59.87;98015.69;6115024;23;20022;-93
2024/01/16 10:17:09;;;;;;;1.20;1.20;;;;;;;2.47;56.40;98011.09;6113547;23;19921;-92
2024/01/16 10:19:36;;;;;;;1.10;1.10;;;;;;;1.71;59.95;98009.06;6156113;23;20018;-94
2024/01/16 10:22:03;;;;;;;;;;;;;;;1.40;59.96;98006.56;6107872;23;20104;-94
2024/01/16 10:24:30;;;;;;;1.10;1.10;;;;;;;1.42;58.50;98002.28;6130864;23;19923;-94
2024/01/16 10:27:04;;;;;;;1.20;1.20;;;;;;;0.19;60.04;98012.09;6105970;23;20017;-92
2024/01/16 10:29:32;;;;;;;1.20;1.20;;;;;;;1.22;59.36;97998.59;6130276;23;20065;-92
2024/01/16 10:32:00;;;;;;;1.17;1.17;;;;;;;1.51;58.48;97987.00;6104570;23;20076;-93
2024/01/16 10:34:25;;;;;;;1.13;1.13;;;;;;;2.01;56.62;97983.44;6155978;23;20006;-95
2024/01/16 10:37:00;;;;;;;1.02;1.02;;;;;;;1.16;55.87;97984.25;6108077;23;20020;-94
2024/01/16 10:39:27;;;;;;;1.20;1.20;;;;;;;1.79;57.44;97986.69;6140348;23;20068;-94
2024/01/16 10:42:00;;;;;;;1.30;1.30;;;;;;;3.05;53.49;97980.53;6163814;23;20021;-94
2024/01/16 10:44:27;;;;;;;1.20;1.20;;;;;;;4.88;49.63;97968.06;6162905;23;20017;-92
2024/01/16 10:47:10;;;;;;;1.10;1.10;;;;;;;5.99;46.33;97966.03;6138707;23;20084;-95
2024/01/16 10:50:01;;;;;;;1.10;1.10;;;;;;;4.15;47.72;97971.28;6161685;23;20022;-91
2024/01/16 10:52:29;;;;;;;1.10;1.10;;;;;;;3.79;50.73;97971.53;6137159;23;20096;-91
2024/01/16 10:55:22;;;;;;;1.10;1.10;;;;;;;2.60;51.92;97979.28;6141164;23;20266;-93
2024/01/16 10:58:57;;;;;;;1.10;1.10;;;;;;;3.19;51.18;97973.25;6172268;23;20024;-94
2024/01/16 11:01:49;;;;;;;1.10;1.10;;;;;;;2.10;53.89;97984.69;6136241;23;20014;-93
2024/01/16 11:04:20;;;;;;;1.10;1.10;;;;;;;1.91;55.50;97982.88;6149840;23;20002;-92
2024/01/16 11:06:51;;;;;;;1.10;1.10;;;;;;;1.97;54.24;97983.22;6163375;23;20007;-91
2024/01/16 11:09:20;;;;;;;1.20;1.20;;;;;;;2.85;52.09;97975.19;6174717;23;20009;-94
2024/01/16 11:11:47;;;;;;;1.10;1.10;;;;;;;3.91;49.17;97964.97;6152821;23;19993;-93
2024/01/16 11:14:39;;;;;;;1.10;1.10;;;;;;;2.65;52.03;97964.59;6174869;23;20001;-93
2024/01/16 11:17:52;;;;;;;1.20;1.20;;;;;;;3.51;50.85;97947.44;6172730;23;20009;-93
2024/01/16 11:20:44;;;;;;;1.10;1.10;;;;;;;4.67;48.12;97935.53;6176031;23;20045;-94
2024/01/16 11:23:15;;;;;;;1.20;1.20;;;;;;;3.02;49.72;97939.97;6164815;23;20013;-92
2024/01/16 11:25:40;;;;;;;1.10;1.10;;;;;;;3.99;49.96;97926.63;6138276;23;20025;-93
2024/01/16 11:28:11;;;;;;;1.20;1.20;;;;;;;4.63;46.45;97924.81;6135102;23;20017;-92
2024/01/16 11:30:45;;;;;;;1.20;1.20;;;;;;;5.07;46.08;97916.78;6170123;23;20020;-92
2024/01/16 11:33:32;;;;;;;1.20;1.20;;;;;;;7.27;42.33;97902.91;6140227;23;20025;-93
2024/01/16 11:35:58;;;;;;;1.10;1.10;;;;;;;7.91;40.49;97887.88;6147253;23;20009;-91
2024/01/16 11:38:26;;;;;;;1.20;1.20;;;;;;;9.86;36.17;97880.66;6150574;23;20017;-91
2024/01/16 11:40:54;;;;;;;1.10;1.10;;;;;;;11.46;32.60;97862.66;6174247;23;20037;-92
2024/01/16 11:43:39;;;;;;;1.10;1.10;;;;;;;11.08;33.00;97865.75;6166602;23;20062;-94
2024/01/16 11:46:07;;;;;;;1.00;1.00;;;;;;;10.40;35.53;97869.19;6161372;23;20013;-93
2024/01/16 11:48:33;;;;;;;0.90;0.90;;;;;;;10.67;35.07;97854.47;6131790;23;20025;-91
2024/01/16 11:50:59;;;;;;;1.00;1.00;;;;;;;10.87;34.90;97844.97;6156147;23;20009;-92
2024/01/16 11:53:32;;;;;;;0.80;0.80;;;;;;;9.29;35.07;97852.06;6153145;23;20028;-90
2024/01/16 11:56:23;;;;;;;0.88;0.88;;;;;;;12.24;31.97;97829.59;6153003;23;20021;-90
2024/01/16 11:59:08;;;;;;;0.80;0.80;;;;;;;11.24;31.64;97838.34;6130317;23;20651;-90
2024/01/16 12:01:35;;;;;;;0.80;0.80;;;;;;;11.54;31.45;97831.56;6156375;23;20009;-89
2024/01/16 12:04:09;;;;;;;0.70;0.70;;;;;;;11.60;32.42;97825.41;6155489;23;20092;-91
2024/01/16 12:06:37;;;;;;;0.80;0.80;;;;;;;10.74;32.87;97835.03;6157335;23;20013;-89
2024/01/16 12:09:17;;;;;;;0.80;0.80;;;;;;;11.96;30.65;97823.09;6156575;23;20687;-89
2024/01/16 12:11:57;;;;;;;0.80;0.80;;;;;;;11.98;31.08;97828.50;6132296;23;20020;-89
2024/01/16 12:14:22;;;;;;;0.80;0.80;;;;;;;11.92;31.11;97823.94;6156732;23;20025;-90
2024/01/16 12:16:49;;;;;;;0.77;0.77;;;;;;;11.44;30.57;97821.66;6131642;23;20333;-91
2024/01/16 12:19:14;;;;;;;0.80;0.80;;;;;;;10.34;32.91;97834.41;6157117;23;20014;-92
2024/01/16 12:21:41;;;;;;;0.80;0.80;;;;;;;11.02;31.09;97821.19;6158150;23;20029;-90
2024/01/16 12:24:07;;;;;;;1.00;1.00;;;;;;;11.44;31.13;97809.19;6133599;23;20009;-92
2024/01/16 12:26:34;;;;;;;1.10;1.10;;;;;;;12.95;27.82;97814.00;6158355;23;20017;-90
2024/01/16 12:28:59;;;;;;;1.00;1.00;;;;;;;13.09;28.53;97801.56;6157650;23;20009;-91
2024/01/16 12:31:26;;;;;;;0.90;0.90;;;;;;;14.67;25.86;97788.38;6157060;23;20094;-92
2024/01/16 12:33:54;;;;;;;0.90;0.90;;;;;;;15.67;24.71;97779.03;6132027;23;20024;-90
2024/01/16 12:36:20;;;;;;;0.90;0.90;;;;;;;14.35;26.17;97783.94;6156682;23;20021;-91
2024/01/16 12:38:55;;;;;;;0.80;0.80;;;;;;;15.85;24.25;97772.63;6132031;23;20013;-91
2024/01/16 12:41:21;;;;;;;0.88;0.88;;;;;;;16.36;23.42;97765.03;6157178;23;20096;-90
2024/01/16 12:43:50;;;;;;;0.90;0.90;;;;;;;15.86;23.29;97767.25;6131048;23;20047;-90
2024/01/16 12:46:16;;;;;;;0.80;0.80;;;;;;;15.73;23.85;97760.16;6137138;23;20048;-89
2024/01/16 12:48:41;;;;;;;0.80;0.80;;;;;;;16.13;22.48;97758.03;6157472;23;20013;-91
2024/01/16 12:51:07;;;;;;;0.70;0.70;;;;;;;15.42;23.84;97755.84;6133406;23;20067;-92
2024/01/16 12:53:39;;;;;;;0.70;0.70;;;;;;;14.70;24.14;97761.50;6158683;23;20009;-93
2024/01/16 12:56:06;;;;;;;0.70;0.70;;;;;;;13.93;25.07;97766.94;6183866;23;20020;-92
2024/01/16 12:58:40;;;;;;;0.88;0.88;;;;;;;11.28;28.84;97764.53;6134734;23;20044;-92
2024/01/16 13:01:29;;;;;;;0.70;0.70;;;;;;;9.74;31.82;97773.91;6170173;23;20005;-91
2024/01/16 13:03:55;;;;;;;0.70;0.70;;;;;;;8.81;32.78;97778.34;6173413;23;20065;-91
2024/01/16 13:06:23;;;;;;;0.80;0.80;;;;;;;8.03;35.61;97778.38;6147626;23;20017;-91
2024/01/16 13:08:49;;;;;;;0.80;0.80;;;;;;;6.77;37.17;97783.06;6174574;23;20001;-92
2024/01/16 13:11:19;;;;;;;0.90;0.90;;;;;;;5.93;40.61;97788.44;6151616;23;20006;-91
2024/01/16 13:13:46;;;;;;;0.80;0.80;;;;;;;5.22;40.90;97794.81;6149999;23;20441;-90
2024/01/16 13:16:12;;;;;;;1.10;1.10;;;;;;;4.98;41.57;97789.56;6170857;23;20018;-91
2024/01/16 13:18:37;;;;;;;1.10;1.10;;;;;;;5.06;42.46;97781.06;6137481;23;20050;-91
2024/01/16 13:21:04;;;;;;;1.00;1.00;;;;;;;4.83;42.24;97772.31;6158380;23;20014;-90
2024/01/16 13:23:29;;;;;;;1.10;1.10;;;;;;;5.86;40.15;97763.50;6157551;23;20017;-90
2024/01/16 13:25:59;;;;;;;1.00;1.00;;;;;;;6.71;38.67;97751.06;6132407;23;20021;-92
2024/01/16 13:28:25;;;;;;;1.02;1.02;;;;;;;6.23;40.42;97750.50;6133553;23;20494;-92
2024/01/16 13:30:52;;;;;;;1.10;1.10;;;;;;;6.55;37.96;97746.16;6157495;23;20013;-93
2024/01/16 13:33:18;;;;;;;1.10;1.10;;;;;;;6.40;38.50;97742.22;6132884;23;20441;-92
2024/01/16 13:35:46;;;;;;;1.00;1.00;;;;;;;5.28;40.04;97747.47;6132581;23;20088;-91
2024/01/16 13:38:12;;;;;;;1.00;1.00;;;;;;;5.57;39.34;97744.03;6132120;23;20484;-91
2024/01/16 13:40:38;;;;;;;1.10;1.10;;;;;;;5.30;40.50;97741.34;6132135;23;20053;-90
2024/01/16 13:43:04;;;;;;;1.00;1.00;;;;;;;5.35;41.16;97739.75;6131994;23;20247;-90
2024/01/16 13:45:30;;;;;;;1.10;1.10;;;;;;;5.58;39.71;97734.34;6157311;23;20009;-91
2024/01/16 13:47:56;;;;;;;1.00;1.00;;;;;;;4.98;41.12;97734.06;6159394;23;20015;-92
2024/01/16 13:50:23;;;;;;;1.00;1.00;;;;;;;4.93;41.93;97728.63;6156959;23;20123;-90
2024/01/16 13:52:50;;;;;;;1.00;1.00;;;;;;;5.53;39.75;97728.91;6157428;23;20041;-91
2024/01/16 13:55:16;;;;;;;1.10;1.10;;;;;;;5.99;39.42;97718.88;6157485;23;20017;-91
2024/01/16 13:57:41;;;;;;;1.10;1.10;;;;;;;6.06;40.59;97731.47;6133320;23;20021;-91
2024/01/16 14:00:18;;;;;;;1.05;1.05;;;;;;;6.48;38.79;97731.84;6162817;23;20014;-91
2024/01/16 14:02:46;;;;;;;1.00;1.00;;;;;;;6.36;38.94;97727.09;6157699;23;20024;-91
2024/01/16 14:05:17;;;;;;;1.05;1.05;;;;;;;6.51;38.34;97720.44;6133027;23;20100;-91
2024/01/16 14:07:48;;;;;;;1.10;1.10;;;;;;;6.78;37.96;97713.25;6159761;23;20112;-91
2024/01/16 14:10:15;;;;;;;1.20;1.20;;;;;;;8.67;36.23;97718.66;6132415;23;20037;-92
2024/01/16 14:12:45;;;;;;;1.00;1.00;;;;;;;9.97;33.40;97699.69;6131751;23;20033;-92
2024/01/16 14:15:22;;;;;;;1.10;1.10;;;;;;;10.98;31.77;97706.34;6158760;23;20014;-92
2024/01/16 14:17:54;;;;;;;;;;;;;;;12.20;28.74;97695.84;6135794;23;20020;-92
2024/01/16 14:20:25;;;;;;;1.10;1.10;;;;;;;11.78;28.97;97692.84;6157557;23;19963;-93
2024/01/16 14:22:51;;;;;;;1.00;1.00;;;;;;;11.94;29.89;97695.69;6133392;23;20398;-91
2024/01/16 14:25:25;;;;;;;1.00;1.00;;;;;;;12.26;27.87;97688.78;6158260;23;20013;-91
2024/01/16 14:27:59;;;;;;;1.05;1.05;;;;;;;12.05;28.32;97688.63;6158997;23;20017;-93
2024/01/16 14:30:26;;;;;;;0.90;0.90;;;;;;;12.94;27.24;97681.03;6135712;23;20017;-90
2024/01/16 14:35:51;;;;;;;0.90;0.90;;;;;;;12.31;27.72;97686.09;6156658;23;20016;-92
2024/01/16 14:38:22;;;;;;;0.90;0.90;;;;;;;11.80;29.03;97692.88;6159034;23;20010;-92
2024/01/16 14:40:51;;;;;;;0.80;0.80;;;;;;;11.74;29.76;97692.84;6159575;23;20014;-89
2024/01/16 14:43:17;;;;;;;0.90;0.90;;;;;;;10.89;30.99;97703.59;6133020;23;20064;-91
2024/01/16 14:45:42;;;;;;;0.80;0.80;;;;;;;10.86;29.88;97699.09;6157338;23;20017;-91
2024/01/16 14:48:10;;;;;;;0.90;0.90;;;;;;;11.82;29.66;97699.16;6156671;23;20075;-90
2024/01/16 14:50:36;;;;;;;0.90;0.90;;;;;;;11.87;29.32;97697.41;6131287;23;20009;-90
2024/01/16 14:53:04;;;;;;;0.80;0.80;;;;;;;12.06;29.09;97679.72;6180782;23;20009;-90
2024/01/16 14:55:30;;;;;;;0.60;0.60;;;;;;;10.06;31.48;97688.25;6156801;23;20009;-90
2024/01/16 14:57:59;;;;;;;0.60;0.60;;;;;;;7.74;34.89;97695.34;6132500;23;20040;-90
2024/01/16 15:00:26;;;;;;;0.70;0.70;;;;;;;5.91;39.67;97694.81;6157514;23;20010;-90
2024/01/16 15:02:55;;;;;;;0.80;0.80;;;;;;;4.44;42.19;97696.94;6155631;23;20343;-90
2024/01/16 15:05:21;;;;;;;0.80;0.80;;;;;;;3.83;43.90;97699.09;6130994;23;20017;-91
2024/01/16 15:07:53;;;;;;;0.90;0.90;;;;;;;3.18;46.63;97691.19;6155140;23;20673;-90
2024/01/16 15:10:19;;;;;;;0.80;0.80;;;;;;;2.51;48.38;97708.56;6157144;23;20057;-91
2024/01/16 15:12:46;;;;;;;0.90;0.90;;;;;;;1.89;49.59;97698.75;6154273;23;20396;-90